sensor_id;sensor_type;location;lat;lon;timestamp;pressure;altitude;pressure_sealevel;temperature;humidity
73974;BME280;62336;-26.094;27.994;2022-10-26T00:01:08;84665.60;;;29.02;10.81
73974;BME280;62336;-26.094;27.994;2022-10-26T00:03:33;84661.26;;;29.50;10.69
73974;BME280;62336;-26.094;27.994;2022-10-26T00:06:03;84661.42;;;29.16;10.72
73974;BME280;62336;-26.094;27.994;2022-10-26T00:08:22;84665.86;;;28.90;10.77
73974;BME280;62336;-26.094;27.994;2022-10-26T00:10:47;84665.24;;;29.20;10.72
73974;BME280;62336;-26.094;27.994;2022-10-26T00:13:12;84668.99;;;29.46;10.97
73974;BME280;62336;-26.094;27.994;2022-10-26T00:15:40;84667.68;;;29.57;11.15
73974;BME280;62336;-26.094;27.994;2022-10-26T00:18:02;84664.32;;;29.18;11.16
73974;BME280;62336;-26.094;27.994;2022-10-26T00:20:27;84661.02;;;29.28;10.97
73974;BME280;62336;-26.094;27.994;2022-10-26T00:22:52;84657.69;;;29.05;11.08
73974;BME280;62336;-26.094;27.994;2022-10-26T00:25:18;84652.68;;;28.77;11.08
73974;BME280;62336;-26.094;27.994;2022-10-26T00:27:43;84652.48;;;28.91;10.97
73974;BME280;62336;-26.094;27.994;2022-10-26T00:30:09;84647.29;;;29.14;10.90
73974;BME280;62336;-26.094;27.994;2022-10-26T00:32:34;84650.36;;;28.92;10.97
73974;BME280;62336;-26.094;27.994;2022-10-26T00:34:59;84650.23;;;28.71;10.65
73974;BME280;62336;-26.094;27.994;2022-10-26T00:37:24;84652.79;;;29.22;10.79
73974;BME280;62336;-26.094;27.994;2022-10-26T00:39:49;84654.87;;;29.20;10.83
73974;BME280;62336;-26.094;27.994;2022-10-26T00:42:18;84652.82;;;29.28;10.88
73974;BME280;62336;-26.094;27.994;2022-10-26T00:47:07;84655.67;;;29.02;11.01
73974;BME280;62336;-26.094;27.994;2022-10-26T00:49:30;84658.88;;;29.22;11.14
73974;BME280;62336;-26.094;27.994;2022-10-26T00:51:55;84659.27;;;29.35;11.05
73974;BME280;62336;-26.094;27.994;2022-10-26T00:54:20;84659.66;;;28.99;11.04
73974;BME280;62336;-26.094;27.994;2022-10-26T00:56:47;84658.31;;;29.41;11.00
73974;BME280;62336;-26.094;27.994;2022-10-26T00:59:12;84653.01;;;28.30;11.16
73974;BME280;62336;-26.094;27.994;2022-10-26T01:01:38;84652.53;;;29.08;11.25
73974;BME280;62336;-26.094;27.994;2022-10-26T01:04:00;84651.73;;;28.97;11.04
73974;BME280;62336;-26.094;27.994;2022-10-26T01:06:26;84646.83;;;28.55;11.00
73974;BME280;62336;-26.094;27.994;2022-10-26T01:08:51;84644.63;;;28.80;11.14
73974;BME280;62336;-26.094;27.994;2022-10-26T01:11:16;84643.77;;;28.60;11.05
73974;BME280;62336;-26.094;27.994;2022-10-26T01:13:41;84643.68;;;28.40;11.05
73974;BME280;62336;-26.094;27.994;2022-10-26T01:16:18;84649.27;;;28.41;10.95
73974;BME280;62336;-26.094;27.994;2022-10-26T01:18:37;84652.82;;;28.88;10.87
73974;BME280;62336;-26.094;27.994;2022-10-26T01:21:14;84651.56;;;29.24;10.84
73974;BME280;62336;-26.094;27.994;2022-10-26T01:23:26;84652.40;;;29.20;11.04
73974;BME280;62336;-26.094;27.994;2022-10-26T01:25:55;84652.82;;;28.91;10.74
73974;BME280;62336;-26.094;27.994;2022-10-26T01:28:23;84655.13;;;28.54;10.88
73974;BME280;62336;-26.094;27.994;2022-10-26T01:30:38;84656.06;;;28.76;10.75
73974;BME280;62336;-26.094;27.994;2022-10-26T01:35:30;84661.50;;;29.19;10.26
73974;BME280;62336;-26.094;27.994;2022-10-26T01:37:56;84665.17;;;29.08;10.51
73974;BME280;62336;-26.094;27.994;2022-10-26T01:40:22;84670.46;;;28.93;10.38
73974;BME280;62336;-26.094;27.994;2022-10-26T01:42:45;84675.64;;;28.86;10.24
73974;BME280;62336;-26.094;27.994;2022-10-26T01:45:09;84682.24;;;28.78;10.18
73974;BME280;62336;-26.094;27.994;2022-10-26T01:47:34;84689.00;;;28.85;10.35
73974;BME280;62336;-26.094;27.994;2022-10-26T01:49:58;84688.00;;;29.53;10.10
73974;BME280;62336;-26.094;27.994;2022-10-26T01:52:22;84689.94;;;28.98;10.22
73974;BME280;62336;-26.094;27.994;2022-10-26T01:54:47;84694.26;;;29.20;10.18
73974;BME280;62336;-26.094;27.994;2022-10-26T01:57:14;84697.75;;;29.17;10.27
73974;BME280;62336;-26.094;27.994;2022-10-26T01:59:48;84702.71;;;29.14;10.20
73974;BME280;62336;-26.094;27.994;2022-10-26T02:02:22;84706.92;;;29.30;10.49
73974;BME280;62336;-26.094;27.994;2022-10-26T02:04:36;84707.51;;;29.11;10.04
73974;BME280;62336;-26.094;27.994;2022-10-26T02:07:00;84709.38;;;29.03;10.08
73974;BME280;62336;-26.094;27.994;2022-10-26T02:09:24;84710.26;;;29.03;10.09
73974;BME280;62336;-26.094;27.994;2022-10-26T02:11:46;84712.33;;;28.96;10.24
73974;BME280;62336;-26.094;27.994;2022-10-26T02:14:15;84713.93;;;29.00;10.25
73974;BME280;62336;-26.094;27.994;2022-10-26T02:16:39;84715.26;;;29.23;10.31
73974;BME280;62336;-26.094;27.994;2022-10-26T02:19:04;84713.57;;;28.90;10.54
73974;BME280;62336;-26.094;27.994;2022-10-26T02:21:28;84712.47;;;28.73;10.54
73974;BME280;62336;-26.094;27.994;2022-10-26T02:23:53;84711.05;;;28.48;10.36
73974;BME280;62336;-26.094;27.994;2022-10-26T02:26:17;84715.86;;;28.78;10.43
73974;BME280;62336;-26.094;27.994;2022-10-26T02:28:42;84716.49;;;28.71;10.52
73974;BME280;62336;-26.094;27.994;2022-10-26T02:31:06;84717.50;;;28.50;10.46
73974;BME280;62336;-26.094;27.994;2022-10-26T02:33:32;84718.72;;;28.34;10.23
73974;BME280;62336;-26.094;27.994;2022-10-26T02:35:59;84722.45;;;28.62;9.99
73974;BME280;62336;-26.094;27.994;2022-10-26T02:38:21;84716.59;;;28.42;10.28
73974;BME280;62336;-26.094;27.994;2022-10-26T02:40:47;84718.77;;;28.60;9.85
73974;BME280;62336;-26.094;27.994;2022-10-26T02:43:13;84717.36;;;28.23;9.84
73974;BME280;62336;-26.094;27.994;2022-10-26T02:45:39;84709.29;;;27.94;9.81
73974;BME280;62336;-26.094;27.994;2022-10-26T02:48:01;84710.52;;;27.91;9.70
73974;BME280;62336;-26.094;27.994;2022-10-26T02:50:31;84710.29;;;28.43;9.96
73974;BME280;62336;-26.094;27.994;2022-10-26T02:52:59;84711.84;;;28.21;9.81
73974;BME280;62336;-26.094;27.994;2022-10-26T02:55:21;84709.63;;;28.06;9.70
73974;BME280;62336;-26.094;27.994;2022-10-26T02:57:46;84717.12;;;27.51;9.69
73974;BME280;62336;-26.094;27.994;2022-10-26T03:00:09;84721.23;;;28.18;9.49
73974;BME280;62336;-26.094;27.994;2022-10-26T03:02:32;84726.65;;;28.24;9.45
73974;BME280;62336;-26.094;27.994;2022-10-26T03:05:06;84728.88;;;28.38;9.25
73974;BME280;62336;-26.094;27.994;2022-10-26T03:07:23;84727.60;;;28.43;9.62
73974;BME280;62336;-26.094;27.994;2022-10-26T03:09:48;84726.58;;;27.74;9.50
73974;BME280;62336;-26.094;27.994;2022-10-26T03:12:13;84726.91;;;27.66;9.74
73974;BME280;62336;-26.094;27.994;2022-10-26T03:14:39;84728.15;;;28.13;9.58
73974;BME280;62336;-26.094;27.994;2022-10-26T03:17:04;84729.14;;;28.41;9.54
73974;BME280;62336;-26.094;27.994;2022-10-26T03:19:29;84728.78;;;28.43;9.73
73974;BME280;62336;-26.094;27.994;2022-10-26T03:21:55;84729.63;;;28.75;9.77
73974;BME280;62336;-26.094;27.994;2022-10-26T03:24:19;84736.00;;;28.19;9.68
73974;BME280;62336;-26.094;27.994;2022-10-26T03:26:44;84743.28;;;28.26;9.87
73974;BME280;62336;-26.094;27.994;2022-10-26T03:29:10;84744.43;;;28.59;9.92
73974;BME280;62336;-26.094;27.994;2022-10-26T03:31:35;84747.08;;;28.77;10.15
73974;BME280;62336;-26.094;27.994;2022-10-26T03:34:00;84747.15;;;29.43;9.57
73974;BME280;62336;-26.094;27.994;2022-10-26T03:36:25;84748.77;;;29.44;9.61
73974;BME280;62336;-26.094;27.994;2022-10-26T03:38:51;84750.93;;;29.04;9.98
73974;BME280;62336;-26.094;27.994;2022-10-26T03:41:15;84752.65;;;28.32;10.26
73974;BME280;62336;-26.094;27.994;2022-10-26T03:43:40;84760.62;;;28.45;10.33
73974;BME280;62336;-26.094;27.994;2022-10-26T03:46:05;84763.38;;;28.78;10.50
73974;BME280;62336;-26.094;27.994;2022-10-26T03:48:30;84765.09;;;28.94;10.42
73974;BME280;62336;-26.094;27.994;2022-10-26T03:50:58;84766.78;;;28.79;10.51
73974;BME280;62336;-26.094;27.994;2022-10-26T03:53:20;84774.03;;;29.10;10.33
73974;BME280;62336;-26.094;27.994;2022-10-26T03:55:45;84778.37;;;29.16;10.72
73974;BME280;62336;-26.094;27.994;2022-10-26T03:58:11;84779.81;;;28.79;10.78
73974;BME280;62336;-26.094;27.994;2022-10-26T04:00:36;84780.94;;;28.73;10.66
73974;BME280;62336;-26.094;27.994;2022-10-26T04:03:01;84787.06;;;28.62;10.85
73974;BME280;62336;-26.094;27.994;2022-10-26T04:05:28;84797.94;;;27.92;10.94
73974;BME280;62336;-26.094;27.994;2022-10-26T04:07:54;84803.17;;;28.49;11.16
73974;BME280;62336;-26.094;27.994;2022-10-26T04:10:17;84804.04;;;28.12;11.59
73974;BME280;62336;-26.094;27.994;2022-10-26T06:11:31;84925.76;;;16.10;31.22
73974;BME280;62336;-26.094;27.994;2022-10-26T06:13:55;84918.84;;;19.99;24.81
73974;BME280;62336;-26.094;27.994;2022-10-26T06:16:30;84911.98;;;23.57;19.95
73974;BME280;62336;-26.094;27.994;2022-10-26T06:18:52;84908.79;;;26.25;17.26
73974;BME280;62336;-26.094;27.994;2022-10-26T06:21:22;84911.24;;;28.33;15.58
73974;BME280;62336;-26.094;27.994;2022-10-26T06:23:46;84908.07;;;29.85;13.82
73974;BME280;62336;-26.094;27.994;2022-10-26T06:26:06;84908.67;;;30.90;13.02
73974;BME280;62336;-26.094;27.994;2022-10-26T06:28:33;84913.97;;;31.65;11.59
73974;BME280;62336;-26.094;27.994;2022-10-26T06:30:52;84913.46;;;32.47;11.45
73974;BME280;62336;-26.094;27.994;2022-10-26T06:33:18;84913.05;;;33.01;10.53
73974;BME280;62336;-26.094;27.994;2022-10-26T06:35:48;84914.64;;;33.11;10.45
73974;BME280;62336;-26.094;27.994;2022-10-26T06:38:11;84918.20;;;32.63;10.91
73974;BME280;62336;-26.094;27.994;2022-10-26T06:40:36;84923.99;;;33.57;11.00
73974;BME280;62336;-26.094;27.994;2022-10-26T06:42:59;84919.86;;;34.11;10.24
73974;BME280;62336;-26.094;27.994;2022-10-26T06:45:24;84916.38;;;34.54;10.02
73974;BME280;62336;-26.094;27.994;2022-10-26T06:47:53;84919.53;;;34.88;9.72
73974;BME280;62336;-26.094;27.994;2022-10-26T06:50:27;84921.07;;;34.97;9.50
73974;BME280;62336;-26.094;27.994;2022-10-26T06:52:43;84924.60;;;34.75;9.53
73974;BME280;62336;-26.094;27.994;2022-10-26T06:55:11;84922.91;;;35.09;10.04
73974;BME280;62336;-26.094;27.994;2022-10-26T06:57:34;84918.66;;;35.06;9.62
73974;BME280;62336;-26.094;27.994;2022-10-26T06:59:58;84915.05;;;35.06;9.95
73974;BME280;62336;-26.094;27.994;2022-10-26T07:02:22;84911.83;;;35.20;10.06
73974;BME280;62336;-26.094;27.994;2022-10-26T07:04:46;84912.38;;;35.82;9.70
73974;BME280;62336;-26.094;27.994;2022-10-26T07:07:15;84907.88;;;35.88;9.32
73974;BME280;62336;-26.094;27.994;2022-10-26T07:09:37;84905.08;;;35.59;9.68
73974;BME280;62336;-26.094;27.994;2022-10-26T07:12:03;84908.85;;;35.60;10.36
73974;BME280;62336;-26.094;27.994;2022-10-26T07:14:27;84908.13;;;35.53;10.63
73974;BME280;62336;-26.094;27.994;2022-10-26T07:16:54;84907.53;;;35.72;10.66
73974;BME280;62336;-26.094;27.994;2022-10-26T07:19:19;84908.51;;;35.96;10.67
73974;BME280;62336;-26.094;27.994;2022-10-26T07:21:44;84900.13;;;35.49;10.83
73974;BME280;62336;-26.094;27.994;2022-10-26T07:24:10;84900.67;;;36.27;10.68
73974;BME280;62336;-26.094;27.994;2022-10-26T07:26:36;84897.69;;;36.23;10.72
73974;BME280;62336;-26.094;27.994;2022-10-26T07:29:01;84902.47;;;36.24;10.27
73974;BME280;62336;-26.094;27.994;2022-10-26T07:31:27;84903.91;;;35.92;9.95
73974;BME280;62336;-26.094;27.994;2022-10-26T07:33:53;84904.24;;;36.48;10.28
73974;BME280;62336;-26.094;27.994;2022-10-26T07:36:17;84902.89;;;36.25;10.47
73974;BME280;62336;-26.094;27.994;2022-10-26T07:38:42;84902.19;;;36.82;10.57
73974;BME280;62336;-26.094;27.994;2022-10-26T07:41:07;84902.72;;;36.75;11.23
73974;BME280;62336;-26.094;27.994;2022-10-26T07:43:32;84906.57;;;36.66;11.08
73974;BME280;62336;-26.094;27.994;2022-10-26T07:45:57;84909.01;;;36.85;9.70
73974;BME280;62336;-26.094;27.994;2022-10-26T07:48:22;84914.96;;;36.71;10.08
73974;BME280;62336;-26.094;27.994;2022-10-26T07:50:47;84915.35;;;36.51;10.29
73974;BME280;62336;-26.094;27.994;2022-10-26T07:53:13;84914.20;;;37.33;9.87
73974;BME280;62336;-26.094;27.994;2022-10-26T07:55:39;84910.13;;;36.92;9.93
73974;BME280;62336;-26.094;27.994;2022-10-26T07:58:05;84910.56;;;37.38;9.86
73974;BME280;62336;-26.094;27.994;2022-10-26T08:00:31;84915.17;;;37.63;9.04
73974;BME280;62336;-26.094;27.994;2022-10-26T08:02:56;84916.99;;;38.11;9.45
73974;BME280;62336;-26.094;27.994;2022-10-26T08:05:21;84917.38;;;37.58;9.09
73974;BME280;62336;-26.094;27.994;2022-10-26T08:07:46;84913.79;;;37.53;8.94
73974;BME280;62336;-26.094;27.994;2022-10-26T08:10:13;84918.24;;;37.57;8.50
73974;BME280;62336;-26.094;27.994;2022-10-26T08:12:37;84915.86;;;38.29;8.24
73974;BME280;62336;-26.094;27.994;2022-10-26T08:15:04;84915.13;;;37.90;7.49
73974;BME280;62336;-26.094;27.994;2022-10-26T08:17:29;84920.09;;;37.11;9.70
73974;BME280;62336;-26.094;27.994;2022-10-26T08:19:54;84914.38;;;37.12;8.75
73974;BME280;62336;-26.094;27.994;2022-10-26T08:22:20;84906.69;;;37.72;7.87
73974;BME280;62336;-26.094;27.994;2022-10-26T08:24:44;84902.82;;;38.32;7.43
73974;BME280;62336;-26.094;27.994;2022-10-26T08:27:10;84901.63;;;37.81;7.33
73974;BME280;62336;-26.094;27.994;2022-10-26T08:29:36;84899.14;;;38.07;7.41
73974;BME280;62336;-26.094;27.994;2022-10-26T08:32:01;84901.40;;;38.35;7.50
73974;BME280;62336;-26.094;27.994;2022-10-26T08:34:26;84899.61;;;38.49;7.25
73974;BME280;62336;-26.094;27.994;2022-10-26T08:36:53;84897.10;;;38.33;8.16
73974;BME280;62336;-26.094;27.994;2022-10-26T08:39:17;84897.03;;;38.04;8.54
73974;BME280;62336;-26.094;27.994;2022-10-26T08:41:44;84890.09;;;37.80;8.56
73974;BME280;62336;-26.094;27.994;2022-10-26T08:44:19;84889.96;;;37.46;9.13
73974;BME280;62336;-26.094;27.994;2022-10-26T08:46:35;84890.39;;;38.54;8.25
73974;BME280;62336;-26.094;27.994;2022-10-26T08:49:02;84890.61;;;38.83;8.14
73974;BME280;62336;-26.094;27.994;2022-10-26T08:51:26;84887.47;;;38.41;8.07
73974;BME280;62336;-26.094;27.994;2022-10-26T08:53:53;84883.84;;;38.62;7.63
73974;BME280;62336;-26.094;27.994;2022-10-26T08:56:18;84876.73;;;37.91;7.74
73974;BME280;62336;-26.094;27.994;2022-10-26T08:58:45;84875.68;;;37.93;7.93
73974;BME280;62336;-26.094;27.994;2022-10-26T09:01:07;84872.11;;;38.18;7.97
73974;BME280;62336;-26.094;27.994;2022-10-26T09:03:31;84875.86;;;38.40;7.91
73974;BME280;62336;-26.094;27.994;2022-10-26T09:06:06;84873.23;;;38.44;7.66
73974;BME280;62336;-26.094;27.994;2022-10-26T09:08:29;84877.53;;;38.88;8.49
73974;BME280;62336;-26.094;27.994;2022-10-26T09:10:54;84882.28;;;38.69;8.38
73974;BME280;62336;-26.094;27.994;2022-10-26T09:13:20;84880.81;;;38.33;8.66
73974;BME280;62336;-26.094;27.994;2022-10-26T09:15:50;84876.44;;;38.91;8.17
73974;BME280;62336;-26.094;27.994;2022-10-26T09:18:14;84873.21;;;38.74;8.18
73974;BME280;62336;-26.094;27.994;2022-10-26T09:20:45;84867.61;;;37.85;8.94
73974;BME280;62336;-26.094;27.994;2022-10-26T09:22:59;84861.12;;;38.51;8.48
73974;BME280;62336;-26.094;27.994;2022-10-26T09:25:22;84855.84;;;38.56;7.41
73974;BME280;62336;-26.094;27.994;2022-10-26T09:27:47;84856.81;;;38.15;8.05
73974;BME280;62336;-26.094;27.994;2022-10-26T09:30:15;84854.01;;;38.29;7.90
73974;BME280;62336;-26.094;27.994;2022-10-26T09:32:38;84851.50;;;38.42;7.88
73974;BME280;62336;-26.094;27.994;2022-10-26T09:35:04;84846.53;;;38.90;7.42
73974;BME280;62336;-26.094;27.994;2022-10-26T09:37:28;84836.03;;;39.38;6.73
73974;BME280;62336;-26.094;27.994;2022-10-26T09:39:57;84834.48;;;39.39;7.52
73974;BME280;62336;-26.094;27.994;2022-10-26T09:42:21;84833.04;;;39.91;7.18
73974;BME280;62336;-26.094;27.994;2022-10-26T09:44:48;84826.94;;;39.63;6.20
73974;BME280;62336;-26.094;27.994;2022-10-26T09:47:14;84827.78;;;39.79;6.10
73974;BME280;62336;-26.094;27.994;2022-10-26T09:49:38;84826.17;;;39.60;6.43
73974;BME280;62336;-26.094;27.994;2022-10-26T09:51:58;84823.45;;;39.67;7.15
73974;BME280;62336;-26.094;27.994;2022-10-26T09:54:23;84823.60;;;39.68;6.28
73974;BME280;62336;-26.094;27.994;2022-10-26T09:56:51;84820.67;;;39.71;6.61
73974;BME280;62336;-26.094;27.994;2022-10-26T09:59:15;84814.52;;;39.81;6.65
73974;BME280;62336;-26.094;27.994;2022-10-26T10:01:40;84816.89;;;39.84;6.86
73974;BME280;62336;-26.094;27.994;2022-10-26T10:06:30;84810.30;;;39.82;7.18
73974;BME280;62336;-26.094;27.994;2022-10-26T10:09:04;84806.15;;;40.03;6.76
73974;BME280;62336;-26.094;27.994;2022-10-26T10:11:21;84803.49;;;40.30;6.13
73974;BME280;62336;-26.094;27.994;2022-10-26T10:13:46;84807.73;;;40.31;6.96
73974;BME280;62336;-26.094;27.994;2022-10-26T10:16:18;84804.80;;;40.03;5.89
73974;BME280;62336;-26.094;27.994;2022-10-26T10:18:38;84798.34;;;39.77;6.45
73974;BME280;62336;-26.094;27.994;2022-10-26T10:21:03;84790.98;;;39.97;6.04
73974;BME280;62336;-26.094;27.994;2022-10-26T10:23:30;84790.60;;;40.10;6.36
73974;BME280;62336;-26.094;27.994;2022-10-26T10:25:58;84790.78;;;40.46;5.87
73974;BME280;62336;-26.094;27.994;2022-10-26T10:28:22;84792.97;;;40.46;5.66
73974;BME280;62336;-26.094;27.994;2022-10-26T10:30:52;84791.27;;;41.37;5.47
73974;BME280;62336;-26.094;27.994;2022-10-26T10:33:11;84788.52;;;41.33;5.93
73974;BME280;62336;-26.094;27.994;2022-10-26T10:35:35;84782.14;;;40.78;5.17
73974;BME280;62336;-26.094;27.994;2022-10-26T10:38:00;84782.04;;;40.90;5.34
73974;BME280;62336;-26.094;27.994;2022-10-26T10:40:26;84784.08;;;40.87;5.39
73974;BME280;62336;-26.094;27.994;2022-10-26T10:42:53;84776.76;;;41.16;4.10
73974;BME280;62336;-26.094;27.994;2022-10-26T10:45:20;84776.61;;;40.97;3.95
73974;BME280;62336;-26.094;27.994;2022-10-26T10:47:42;84775.57;;;41.24;4.13
73974;BME280;62336;-26.094;27.994;2022-10-26T10:50:16;84772.67;;;41.07;4.89
73974;BME280;62336;-26.094;27.994;2022-10-26T10:52:34;84769.77;;;41.70;4.90
73974;BME280;62336;-26.094;27.994;2022-10-26T10:55:13;84770.18;;;41.94;4.71
73974;BME280;62336;-26.094;27.994;2022-10-26T10:57:29;84765.98;;;41.69;6.09
73974;BME280;62336;-26.094;27.994;2022-10-26T10:59:58;84759.80;;;41.51;5.08
73974;BME280;62336;-26.094;27.994;2022-10-26T11:04:53;84753.14;;;41.91;4.06
73974;BME280;62336;-26.094;27.994;2022-10-26T11:07:06;84746.20;;;41.58;4.36
73974;BME280;62336;-26.094;27.994;2022-10-26T11:09:32;84748.96;;;41.87;5.57
73974;BME280;62336;-26.094;27.994;2022-10-26T11:11:57;84746.30;;;41.71;5.95
73974;BME280;62336;-26.094;27.994;2022-10-26T11:14:25;84743.47;;;41.94;4.93
73974;BME280;62336;-26.094;27.994;2022-10-26T11:16:49;84749.04;;;42.17;4.38
73974;BME280;62336;-26.094;27.994;2022-10-26T11:19:19;84740.00;;;41.96;3.96
73974;BME280;62336;-26.094;27.994;2022-10-26T11:21:37;84728.83;;;41.68;3.85
73974;BME280;62336;-26.094;27.994;2022-10-26T11:24:11;84727.25;;;41.49;4.65
73974;BME280;62336;-26.094;27.994;2022-10-26T11:26:31;84726.22;;;41.46;4.06
73974;BME280;62336;-26.094;27.994;2022-10-26T11:28:57;84726.39;;;41.74;4.23
73974;BME280;62336;-26.094;27.994;2022-10-26T11:31:24;84726.60;;;41.78;4.37
73974;BME280;62336;-26.094;27.994;2022-10-26T11:33:53;84725.65;;;41.91;4.22
73974;BME280;62336;-26.094;27.994;2022-10-26T11:36:13;84728.05;;;41.58;4.30
73974;BME280;62336;-26.094;27.994;2022-10-26T11:38:39;84724.79;;;41.79;4.65
73974;BME280;62336;-26.094;27.994;2022-10-26T11:41:05;84720.14;;;42.01;4.90
73974;BME280;62336;-26.094;27.994;2022-10-26T11:43:29;84715.56;;;42.16;4.62
73974;BME280;62336;-26.094;27.994;2022-10-26T11:46:00;84715.54;;;42.82;3.87
73974;BME280;62336;-26.094;27.994;2022-10-26T11:48:21;84716.53;;;42.32;4.14
73974;BME280;62336;-26.094;27.994;2022-10-26T11:50:44;84717.71;;;42.93;3.36
73974;BME280;62336;-26.094;27.994;2022-10-26T11:53:11;84715.87;;;42.70;3.63
73974;BME280;62336;-26.094;27.994;2022-10-26T11:55:33;84713.33;;;42.44;3.84
73974;BME280;62336;-26.094;27.994;2022-10-26T11:57:55;84711.84;;;41.06;5.25
73974;BME280;62336;-26.094;27.994;2022-10-26T12:00:21;84719.93;;;41.66;5.03
73974;BME280;62336;-26.094;27.994;2022-10-26T12:02:49;84719.92;;;42.09;4.40
73974;BME280;62336;-26.094;27.994;2022-10-26T12:05:18;84713.78;;;42.01;4.46
73974;BME280;62336;-26.094;27.994;2022-10-26T12:07:37;84713.08;;;42.06;4.11
73974;BME280;62336;-26.094;27.994;2022-10-26T12:10:02;84712.71;;;42.33;4.26
73974;BME280;62336;-26.094;27.994;2022-10-26T12:12:33;84712.78;;;42.32;4.36
73974;BME280;62336;-26.094;27.994;2022-10-26T12:14:58;84721.84;;;42.40;3.83
73974;BME280;62336;-26.094;27.994;2022-10-26T12:17:23;84716.04;;;42.57;3.13
73974;BME280;62336;-26.094;27.994;2022-10-26T12:19:47;84708.33;;;42.61;3.43
73974;BME280;62336;-26.094;27.994;2022-10-26T12:22:09;84705.43;;;42.73;3.37
73974;BME280;62336;-26.094;27.994;2022-10-26T12:24:33;84705.10;;;42.56;3.30
73974;BME280;62336;-26.094;27.994;2022-10-26T12:26:59;84698.00;;;42.60;3.16
73974;BME280;62336;-26.094;27.994;2022-10-26T12:29:29;84696.26;;;42.67;4.41
73974;BME280;62336;-26.094;27.994;2022-10-26T12:31:49;84692.21;;;42.36;3.47
73974;BME280;62336;-26.094;27.994;2022-10-26T12:34:21;84684.38;;;42.24;3.10
73974;BME280;62336;-26.094;27.994;2022-10-26T12:36:49;84688.27;;;42.65;4.73
73974;BME280;62336;-26.094;27.994;2022-10-26T12:41:30;84682.99;;;42.63;3.68
73974;BME280;62336;-26.094;27.994;2022-10-26T12:44:00;84679.85;;;42.34;3.67
73974;BME280;62336;-26.094;27.994;2022-10-26T12:48:48;84677.21;;;42.52;3.64
73974;BME280;62336;-26.094;27.994;2022-10-26T12:51:17;84676.26;;;42.29;3.76
73974;BME280;62336;-26.094;27.994;2022-10-26T12:53:36;84670.81;;;41.87;2.90
73974;BME280;62336;-26.094;27.994;2022-10-26T12:56:04;84671.07;;;42.08;3.41
73974;BME280;62336;-26.094;27.994;2022-10-26T13:03:25;84668.99;;;42.15;3.47
73974;BME280;62336;-26.094;27.994;2022-10-26T13:05:59;84668.80;;;42.31;3.38
73974;BME280;62336;-26.094;27.994;2022-10-26T13:08:10;84667.10;;;42.28;2.85
73974;BME280;62336;-26.094;27.994;2022-10-26T13:10:34;84662.36;;;42.24;3.71
73974;BME280;62336;-26.094;27.994;2022-10-26T13:13:00;84659.06;;;42.05;3.37
73974;BME280;62336;-26.094;27.994;2022-10-26T13:15:27;84654.29;;;42.15;3.53
73974;BME280;62336;-26.094;27.994;2022-10-26T13:17:57;84651.70;;;42.14;3.47
73974;BME280;62336;-26.094;27.994;2022-10-26T13:20:17;84650.50;;;42.02;3.45
73974;BME280;62336;-26.094;27.994;2022-10-26T13:22:45;84645.92;;;42.21;3.67
73974;BME280;62336;-26.094;27.994;2022-10-26T13:27:42;84649.19;;;41.56;3.62
73974;BME280;62336;-26.094;27.994;2022-10-26T13:32:22;84650.40;;;41.68;3.68
73974;BME280;62336;-26.094;27.994;2022-10-26T13:34:48;84657.60;;;41.18;4.32
73974;BME280;62336;-26.094;27.994;2022-10-26T13:37:18;84650.47;;;41.32;4.23
73974;BME280;62336;-26.094;27.994;2022-10-26T13:39:41;84643.56;;;41.09;3.57
73974;BME280;62336;-26.094;27.994;2022-10-26T13:42:05;84639.52;;;40.65;3.81
73974;BME280;62336;-26.094;27.994;2022-10-26T13:44:34;84647.91;;;41.09;3.73
73974;BME280;62336;-26.094;27.994;2022-10-26T13:46:58;84651.67;;;40.88;3.71
73974;BME280;62336;-26.094;27.994;2022-10-26T13:49:25;84650.94;;;41.68;3.39
73974;BME280;62336;-26.094;27.994;2022-10-26T13:51:49;84645.80;;;41.64;3.13
73974;BME280;62336;-26.094;27.994;2022-10-26T13:54:20;84648.92;;;41.27;3.25
73974;BME280;62336;-26.094;27.994;2022-10-26T13:56:40;84646.20;;;41.69;3.72
73974;BME280;62336;-26.094;27.994;2022-10-26T13:59:03;84645.98;;;41.70;3.54
73974;BME280;62336;-26.094;27.994;2022-10-26T14:01:27;84643.84;;;41.78;3.54
73974;BME280;62336;-26.094;27.994;2022-10-26T14:03:52;84643.84;;;42.11;3.26
73974;BME280;62336;-26.094;27.994;2022-10-26T14:06:22;84648.16;;;41.70;3.21
73974;BME280;62336;-26.094;27.994;2022-10-26T14:08:43;84649.46;;;41.79;4.22
73974;BME280;62336;-26.094;27.994;2022-10-26T14:11:11;84655.17;;;41.36;3.95
73974;BME280;62336;-26.094;27.994;2022-10-26T14:12:49;84651.96;;;41.02;4.02
73974;BME280;62336;-26.094;27.994;2022-10-26T14:15:24;84651.05;;;41.88;4.41
73974;BME280;62336;-26.094;27.994;2022-10-26T14:17:39;84646.32;;;41.17;3.56
73974;BME280;62336;-26.094;27.994;2022-10-26T14:20:05;84651.49;;;41.26;4.07
73974;BME280;62336;-26.094;27.994;2022-10-26T14:22:30;84651.36;;;41.15;4.55
73974;BME280;62336;-26.094;27.994;2022-10-26T14:24:56;84654.19;;;40.73;3.95
73974;BME280;62336;-26.094;27.994;2022-10-26T14:27:21;84657.79;;;41.42;3.92
73974;BME280;62336;-26.094;27.994;2022-10-26T14:29:45;84663.91;;;41.42;4.51
73974;BME280;62336;-26.094;27.994;2022-10-26T14:32:20;84663.88;;;41.55;3.56
73974;BME280;62336;-26.094;27.994;2022-10-26T14:34:35;84659.46;;;41.49;4.01
73974;BME280;62336;-26.094;27.994;2022-10-26T14:37:02;84661.21;;;41.32;4.45
73974;BME280;62336;-26.094;27.994;2022-10-26T14:39:30;84660.24;;;41.42;4.97
73974;BME280;62336;-26.094;27.994;2022-10-26T14:41:52;84660.71;;;41.28;4.23
73974;BME280;62336;-26.094;27.994;2022-10-26T14:44:18;84664.91;;;41.44;4.98
73974;BME280;62336;-26.094;27.994;2022-10-26T14:46:42;84662.98;;;40.69;4.47
73974;BME280;62336;-26.094;27.994;2022-10-26T14:49:15;84668.09;;;40.71;4.63
73974;BME280;62336;-26.094;27.994;2022-10-26T14:51:34;84675.81;;;41.68;4.69
73974;BME280;62336;-26.094;27.994;2022-10-26T14:53:58;84677.60;;;41.16;3.83
73974;BME280;62336;-26.094;27.994;2022-10-26T14:56:24;84672.86;;;40.91;4.22